DAL2376 KLGA-KBOS
Flight info
| Callsign | DAL2376 |
|---|---|
| Flight time | 0h 43m |
| Altitude | 21000 |
| Route | DCT MERIT ROBUC3 |
| Aircraft | A321/M-SDE3FGHIRWY/LB1 |
Departure
| Time | 2026-05-06 10:30 |
|---|---|
| Airport | LaGuardia Airport (KLGA) |
Arrival
| Time | 2026-05-06 11:13 |
|---|---|
| Airport | Boston Logan International Airport (KBOS) |
| Time | Latitude | Longitude | Altitude | Speed | Heading |
|---|---|---|---|---|---|
| 2026-05-06 09:59 | 40.76901 | -73.85857 | 20 ft | 0 kts | 132° |
| 2026-05-06 10:20 | 40.76902 | -73.85859 | 19 ft | 2 kts | 132° |
| 2026-05-06 10:21 | 40.76916 | -73.85885 | 21 ft | 4 kts | 99° |
| 2026-05-06 10:21 | 40.76912 | -73.85916 | 22 ft | 4 kts | 50° |
| 2026-05-06 10:21 | 40.76913 | -73.85917 | 22 ft | 4 kts | 44° |
| 2026-05-06 10:21 | 40.76931 | -73.85899 | 21 ft | 1 kts | 32° |
| 2026-05-06 10:24 | 40.76936 | -73.85895 | 21 ft | 2 kts | 31° |
| 2026-05-06 10:24 | 40.76951 | -73.85886 | 21 ft | 4 kts | 17° |
| 2026-05-06 10:24 | 40.77025 | -73.85890 | 19 ft | 14 kts | 347° |
| 2026-05-06 10:24 | 40.77121 | -73.85933 | 12 ft | 14 kts | 318° |
| 2026-05-06 10:25 | 40.77173 | -73.86034 | 12 ft | 13 kts | 301° |
| 2026-05-06 10:25 | 40.77217 | -73.86130 | 13 ft | 11 kts | 302° |
| 2026-05-06 10:25 | 40.77255 | -73.86208 | 12 ft | 10 kts | 303° |
| 2026-05-06 10:25 | 40.77316 | -73.86335 | 12 ft | 24 kts | 302° |
| 2026-05-06 10:26 | 40.77408 | -73.86529 | 13 ft | 23 kts | 302° |
| 2026-05-06 10:26 | 40.77491 | -73.86700 | 13 ft | 21 kts | 303° |
| 2026-05-06 10:26 | 40.77555 | -73.86812 | 13 ft | 14 kts | 304° |
| 2026-05-06 10:26 | 40.77605 | -73.86914 | 13 ft | 13 kts | 302° |
| 2026-05-06 10:27 | 40.77648 | -73.87005 | 15 ft | 11 kts | 301° |
| 2026-05-06 10:27 | 40.77681 | -73.87076 | 15 ft | 8 kts | 302° |
| 2026-05-06 10:27 | 40.77724 | -73.87168 | 15 ft | 16 kts | 301° |
| 2026-05-06 10:27 | 40.77772 | -73.87316 | 15 ft | 14 kts | 275° |
| 2026-05-06 10:28 | 40.77796 | -73.87397 | 14 ft | 13 kts | 334° |
| 2026-05-06 10:28 | 40.77863 | -73.87481 | 16 ft | 12 kts | 301° |
| 2026-05-06 10:28 | 40.77900 | -73.87559 | 18 ft | 9 kts | 302° |
| 2026-05-06 10:28 | 40.77960 | -73.87685 | 17 ft | 23 kts | 302° |
| 2026-05-06 10:29 | 40.78022 | -73.87814 | 17 ft | 9 kts | 310° |
| 2026-05-06 10:29 | 40.78079 | -73.87841 | 18 ft | 10 kts | 347° |
| 2026-05-06 10:29 | 40.78170 | -73.87867 | 15 ft | 11 kts | 353° |
| 2026-05-06 10:29 | 40.78210 | -73.87819 | 15 ft | 8 kts | 91° |
| 2026-05-06 10:30 | 40.78163 | -73.87713 | 13 ft | 30 kts | 122° |
| 2026-05-06 10:30 | 40.77909 | -73.87181 | 15 ft | 103 kts | 122° |
| 2026-05-06 10:30 | 40.77420 | -73.86156 | 42 ft | 156 kts | 125° |
| 2026-05-06 10:30 | 40.76822 | -73.84943 | 624 ft | 158 kts | 128° |
| 2026-05-06 10:31 | 40.76211 | -73.83707 | 1068 ft | 169 kts | 131° |
| 2026-05-06 10:31 | 40.75567 | -73.82280 | 1280 ft | 194 kts | 125° |
| 2026-05-06 10:31 | 40.75427 | -73.80349 | 1499 ft | 235 kts | 81° |
| 2026-05-06 10:31 | 40.76305 | -73.78430 | 1730 ft | 256 kts | 44° |
| 2026-05-06 10:32 | 40.77731 | -73.76941 | 2026 ft | 266 kts | 30° |
| 2026-05-06 10:32 | 40.79333 | -73.75606 | 2465 ft | 276 kts | 26° |
| 2026-05-06 10:32 | 40.81090 | -73.74607 | 2984 ft | 281 kts | 12° |
| 2026-05-06 10:32 | 40.83005 | -73.73767 | 3404 ft | 299 kts | 18° |
| 2026-05-06 10:33 | 40.84939 | -73.72652 | 4067 ft | 306 kts | 22° |
| 2026-05-06 10:33 | 40.86846 | -73.71399 | 4831 ft | 308 kts | 25° |
| 2026-05-06 10:33 | 40.88727 | -73.70023 | 5590 ft | 311 kts | 32° |
| 2026-05-06 10:33 | 40.90399 | -73.68196 | 6323 ft | 313 kts | 43° |
| 2026-05-06 10:34 | 40.92013 | -73.66250 | 7023 ft | 316 kts | 41° |
| 2026-05-06 10:34 | 40.93676 | -73.64331 | 7670 ft | 319 kts | 41° |
| 2026-05-06 10:34 | 40.95360 | -73.62436 | 8290 ft | 324 kts | 40° |
| 2026-05-06 10:34 | 40.97098 | -73.60498 | 8920 ft | 329 kts | 40° |
| 2026-05-06 10:35 | 40.98863 | -73.58528 | 9542 ft | 334 kts | 40° |
| 2026-05-06 10:35 | 41.00646 | -73.56529 | 10149 ft | 338 kts | 40° |
| 2026-05-06 10:35 | 41.02452 | -73.54497 | 10663 ft | 347 kts | 40° |
| 2026-05-06 10:35 | 41.04347 | -73.52361 | 10787 ft | 368 kts | 40° |
| 2026-05-06 10:36 | 41.06347 | -73.50102 | 10905 ft | 388 kts | 40° |
| 2026-05-06 10:36 | 41.08450 | -73.47718 | 11071 ft | 406 kts | 40° |
| 2026-05-06 10:36 | 41.10619 | -73.45251 | 11529 ft | 413 kts | 40° |
| 2026-05-06 10:36 | 41.12806 | -73.42761 | 12115 ft | 417 kts | 40° |
| 2026-05-06 10:37 | 41.15015 | -73.40243 | 12737 ft | 420 kts | 40° |
| 2026-05-06 10:37 | 41.17241 | -73.37709 | 13330 ft | 423 kts | 40° |
| 2026-05-06 10:37 | 41.19480 | -73.35156 | 13921 ft | 426 kts | 39° |
| 2026-05-06 10:37 | 41.21732 | -73.32583 | 14461 ft | 428 kts | 39° |
| 2026-05-06 10:38 | 41.23997 | -73.29992 | 14985 ft | 431 kts | 39° |
| 2026-05-06 10:38 | 41.26279 | -73.27387 | 15500 ft | 433 kts | 39° |
| 2026-05-06 10:38 | 41.28571 | -73.24769 | 16011 ft | 436 kts | 39° |
| 2026-05-06 10:38 | 41.30876 | -73.22134 | 16534 ft | 438 kts | 39° |
| 2026-05-06 10:39 | 41.33194 | -73.19484 | 17044 ft | 440 kts | 39° |
| 2026-05-06 10:39 | 41.35345 | -73.16560 | 17523 ft | 445 kts | 50° |
| 2026-05-06 10:39 | 41.37090 | -73.13143 | 18027 ft | 448 kts | 61° |
| 2026-05-06 10:39 | 41.38358 | -73.09349 | 18438 ft | 451 kts | 73° |
| 2026-05-06 10:40 | 41.39107 | -73.05291 | 18798 ft | 452 kts | 83° |
| 2026-05-06 10:40 | 41.39552 | -73.01135 | 19189 ft | 455 kts | 84° |
| 2026-05-06 10:40 | 41.40003 | -72.96955 | 19578 ft | 457 kts | 83° |
| 2026-05-06 10:40 | 41.40452 | -72.92807 | 19935 ft | 460 kts | 83° |
| 2026-05-06 10:41 | 41.40909 | -72.88571 | 20329 ft | 462 kts | 83° |
| 2026-05-06 10:41 | 41.41367 | -72.84320 | 20715 ft | 465 kts | 83° |
| 2026-05-06 10:41 | 41.41824 | -72.80055 | 20900 ft | 466 kts | 83° |
| 2026-05-06 10:41 | 41.42279 | -72.75754 | 20939 ft | 473 kts | 83° |
| 2026-05-06 10:42 | 41.42737 | -72.71404 | 20958 ft | 475 kts | 83° |
| 2026-05-06 10:42 | 41.43194 | -72.67037 | 20961 ft | 475 kts | 83° |
| 2026-05-06 10:42 | 41.43649 | -72.62683 | 20960 ft | 475 kts | 83° |
| 2026-05-06 10:42 | 41.44106 | -72.58319 | 20950 ft | 475 kts | 83° |
| 2026-05-06 10:43 | 41.44560 | -72.53956 | 20963 ft | 475 kts | 83° |
| 2026-05-06 10:43 | 41.45011 | -72.49600 | 20962 ft | 474 kts | 83° |
| 2026-05-06 10:43 | 41.45458 | -72.45250 | 20963 ft | 474 kts | 83° |
| 2026-05-06 10:44 | 41.46356 | -72.36524 | 20961 ft | 475 kts | 83° |
| 2026-05-06 10:44 | 41.46803 | -72.32167 | 20962 ft | 475 kts | 83° |
| 2026-05-06 10:44 | 41.47242 | -72.27865 | 20961 ft | 474 kts | 83° |
| 2026-05-06 10:44 | 41.47743 | -72.23511 | 20949 ft | 475 kts | 78° |
| 2026-05-06 10:45 | 41.48663 | -72.19281 | 20948 ft | 475 kts | 69° |
| 2026-05-06 10:45 | 41.50021 | -72.15269 | 20946 ft | 474 kts | 63° |
| 2026-05-06 10:45 | 41.51478 | -72.11325 | 20945 ft | 474 kts | 63° |
| 2026-05-06 10:45 | 41.52929 | -72.07371 | 20950 ft | 474 kts | 63° |
| 2026-05-06 10:46 | 41.54373 | -72.03412 | 20946 ft | 474 kts | 63° |
| 2026-05-06 10:46 | 41.55803 | -71.99449 | 20947 ft | 474 kts | 64° |
| 2026-05-06 10:46 | 41.57148 | -71.95426 | 20960 ft | 475 kts | 66° |
| 2026-05-06 10:46 | 41.58394 | -71.91336 | 20968 ft | 475 kts | 68° |
| 2026-05-06 10:47 | 41.59575 | -71.87225 | 20960 ft | 474 kts | 69° |
| 2026-05-06 10:47 | 41.60734 | -71.83105 | 20977 ft | 474 kts | 70° |
| 2026-05-06 10:47 | 41.61897 | -71.78980 | 20996 ft | 473 kts | 69° |
| 2026-05-06 10:47 | 41.63071 | -71.74878 | 20988 ft | 473 kts | 69° |
| 2026-05-06 10:48 | 41.64264 | -71.70784 | 20981 ft | 471 kts | 69° |
| 2026-05-06 10:48 | 41.65443 | -71.66778 | 20931 ft | 453 kts | 68° |
| 2026-05-06 10:48 | 41.66570 | -71.62965 | 20801 ft | 430 kts | 68° |
| 2026-05-06 10:48 | 41.67638 | -71.59347 | 20434 ft | 408 kts | 69° |
| 2026-05-06 10:49 | 41.68666 | -71.55859 | 19709 ft | 399 kts | 69° |
| 2026-05-06 10:49 | 41.69673 | -71.52437 | 18937 ft | 392 kts | 69° |
| 2026-05-06 10:49 | 41.70664 | -71.49067 | 18154 ft | 387 kts | 69° |
| 2026-05-06 10:49 | 41.71629 | -71.45767 | 17272 ft | 383 kts | 70° |
| 2026-05-06 10:50 | 41.72667 | -71.42530 | 16708 ft | 377 kts | 62° |
| 2026-05-06 10:50 | 41.73958 | -71.39475 | 16257 ft | 376 kts | 61° |
| 2026-05-06 10:50 | 41.75259 | -71.36440 | 15784 ft | 377 kts | 61° |
| 2026-05-06 10:50 | 41.76568 | -71.33385 | 15309 ft | 378 kts | 61° |
| 2026-05-06 10:51 | 41.77869 | -71.30349 | 14895 ft | 377 kts | 62° |
| 2026-05-06 10:51 | 41.79167 | -71.27313 | 14561 ft | 373 kts | 62° |
| 2026-05-06 10:51 | 41.80451 | -71.24297 | 14202 ft | 371 kts | 62° |
| 2026-05-06 10:51 | 41.81717 | -71.21313 | 13992 ft | 364 kts | 62° |
| 2026-05-06 10:52 | 41.82957 | -71.18388 | 13712 ft | 359 kts | 63° |
| 2026-05-06 10:52 | 41.84187 | -71.15484 | 13338 ft | 356 kts | 63° |
| 2026-05-06 10:52 | 41.85407 | -71.12616 | 12654 ft | 352 kts | 63° |
| 2026-05-06 10:52 | 41.86616 | -71.09782 | 11885 ft | 349 kts | 62° |
| 2026-05-06 10:53 | 41.87816 | -71.07002 | 11689 ft | 344 kts | 62° |
| 2026-05-06 10:53 | 41.89025 | -71.04218 | 11596 ft | 345 kts | 62° |
| 2026-05-06 10:53 | 41.90234 | -71.01437 | 11445 ft | 345 kts | 62° |
| 2026-05-06 10:53 | 41.91436 | -70.98662 | 11284 ft | 344 kts | 62° |
| 2026-05-06 10:54 | 41.92638 | -70.95883 | 11134 ft | 343 kts | 62° |
| 2026-05-06 10:54 | 41.93832 | -70.93118 | 10982 ft | 342 kts | 62° |
| 2026-05-06 10:54 | 41.95022 | -70.90354 | 10833 ft | 341 kts | 62° |
| 2026-05-06 10:54 | 41.96208 | -70.87595 | 10663 ft | 341 kts | 62° |
| 2026-05-06 10:55 | 41.97370 | -70.84878 | 10538 ft | 339 kts | 63° |
| 2026-05-06 10:55 | 41.98554 | -70.82099 | 10387 ft | 338 kts | 63° |
| 2026-05-06 10:55 | 41.99721 | -70.79365 | 10250 ft | 337 kts | 62° |
| 2026-05-06 10:55 | 42.00902 | -70.76700 | 10086 ft | 338 kts | 56° |
| 2026-05-06 10:56 | 42.02403 | -70.74247 | 9764 ft | 339 kts | 48° |
| 2026-05-06 10:56 | 42.03977 | -70.71906 | 9425 ft | 336 kts | 48° |
| 2026-05-06 10:56 | 42.05534 | -70.69581 | 9104 ft | 333 kts | 49° |
| 2026-05-06 10:56 | 42.07078 | -70.67270 | 8790 ft | 331 kts | 49° |
| 2026-05-06 10:57 | 42.08611 | -70.64971 | 8472 ft | 329 kts | 49° |
| 2026-05-06 10:57 | 42.10282 | -70.62902 | 8168 ft | 326 kts | 34° |
| 2026-05-06 10:57 | 42.12241 | -70.61438 | 7861 ft | 320 kts | 19° |
| 2026-05-06 10:57 | 42.14357 | -70.60622 | 7562 ft | 314 kts | 7° |
| 2026-05-06 10:58 | 42.16497 | -70.60039 | 7277 ft | 313 kts | 7° |
| 2026-05-06 10:58 | 42.18629 | -70.59452 | 6959 ft | 311 kts | 8° |
| 2026-05-06 10:58 | 42.20748 | -70.58863 | 6670 ft | 310 kts | 8° |
| 2026-05-06 10:58 | 42.22851 | -70.58276 | 6375 ft | 308 kts | 8° |
| 2026-05-06 10:59 | 42.24944 | -70.57689 | 6060 ft | 306 kts | 8° |
| 2026-05-06 10:59 | 42.27024 | -70.57104 | 5769 ft | 305 kts | 8° |
| 2026-05-06 10:59 | 42.29074 | -70.56534 | 5480 ft | 303 kts | 6° |
| 2026-05-06 10:59 | 42.31140 | -70.56428 | 5195 ft | 293 kts | 347° |
| 2026-05-06 11:00 | 42.33070 | -70.57104 | 5014 ft | 282 kts | 329° |
| 2026-05-06 11:00 | 42.34727 | -70.58425 | 5026 ft | 273 kts | 313° |
| 2026-05-06 11:00 | 42.36099 | -70.60156 | 5042 ft | 269 kts | 308° |
| 2026-05-06 11:00 | 42.37442 | -70.61921 | 5015 ft | 268 kts | 308° |
| 2026-05-06 11:01 | 42.38781 | -70.63675 | 5020 ft | 268 kts | 308° |
| 2026-05-06 11:01 | 42.40121 | -70.65433 | 5016 ft | 268 kts | 308° |
| 2026-05-06 11:01 | 42.41461 | -70.67191 | 5010 ft | 268 kts | 308° |
| 2026-05-06 11:01 | 42.42800 | -70.68949 | 5012 ft | 268 kts | 308° |
| 2026-05-06 11:02 | 42.44138 | -70.70709 | 5003 ft | 268 kts | 308° |
| 2026-05-06 11:02 | 42.45475 | -70.72471 | 5003 ft | 268 kts | 308° |
| 2026-05-06 11:02 | 42.46812 | -70.74236 | 5004 ft | 268 kts | 308° |
| 2026-05-06 11:02 | 42.48151 | -70.76005 | 5009 ft | 268 kts | 308° |
| 2026-05-06 11:03 | 42.49486 | -70.77768 | 5008 ft | 268 kts | 308° |
| 2026-05-06 11:03 | 42.50794 | -70.79484 | 4998 ft | 253 kts | 308° |
| 2026-05-06 11:03 | 42.52208 | -70.80842 | 4998 ft | 251 kts | 330° |
| 2026-05-06 11:03 | 42.53955 | -70.81254 | 5039 ft | 264 kts | 359° |
| 2026-05-06 11:04 | 42.55736 | -70.80633 | 5025 ft | 271 kts | 15° |
| 2026-05-06 11:04 | 42.57514 | -70.79760 | 5004 ft | 271 kts | 16° |
| 2026-05-06 11:04 | 42.59283 | -70.78875 | 5013 ft | 271 kts | 17° |
| 2026-05-06 11:04 | 42.61048 | -70.77987 | 5008 ft | 271 kts | 16° |
| 2026-05-06 11:05 | 42.62828 | -70.77172 | 4984 ft | 267 kts | 5° |
| 2026-05-06 11:05 | 42.64579 | -70.77400 | 4863 ft | 246 kts | 326° |
| 2026-05-06 11:05 | 42.65737 | -70.78881 | 4757 ft | 220 kts | 286° |
| 2026-05-06 11:05 | 42.65845 | -70.80806 | 4661 ft | 202 kts | 246° |
| 2026-05-06 11:06 | 42.64961 | -70.82219 | 4591 ft | 201 kts | 216° |
| 2026-05-06 11:06 | 42.63817 | -70.83327 | 4500 ft | 202 kts | 221° |
| 2026-05-06 11:06 | 42.62750 | -70.84558 | 4403 ft | 201 kts | 223° |
| 2026-05-06 11:06 | 42.61721 | -70.85819 | 4310 ft | 198 kts | 224° |
| 2026-05-06 11:07 | 42.60704 | -70.87087 | 4213 ft | 198 kts | 224° |
| 2026-05-06 11:07 | 42.59692 | -70.88361 | 4129 ft | 198 kts | 224° |
| 2026-05-06 11:07 | 42.58663 | -70.89583 | 4019 ft | 195 kts | 217° |
| 2026-05-06 11:07 | 42.57459 | -70.90351 | 3823 ft | 190 kts | 205° |
| 2026-05-06 11:08 | 42.56233 | -70.90931 | 3602 ft | 182 kts | 205° |
| 2026-05-06 11:08 | 42.55084 | -70.91480 | 3386 ft | 169 kts | 206° |
| 2026-05-06 11:08 | 42.54014 | -70.91998 | 3186 ft | 160 kts | 206° |
| 2026-05-06 11:08 | 42.52981 | -70.92501 | 3075 ft | 156 kts | 207° |
| 2026-05-06 11:09 | 42.51964 | -70.92997 | 2984 ft | 154 kts | 206° |
| 2026-05-06 11:09 | 42.50966 | -70.93482 | 2827 ft | 151 kts | 207° |
| 2026-05-06 11:09 | 42.49988 | -70.93958 | 2647 ft | 149 kts | 207° |
| 2026-05-06 11:09 | 42.49020 | -70.94429 | 2455 ft | 146 kts | 207° |
| 2026-05-06 11:10 | 42.48109 | -70.94869 | 2276 ft | 133 kts | 207° |
| 2026-05-06 11:10 | 42.47256 | -70.95284 | 2099 ft | 129 kts | 207° |
| 2026-05-06 11:10 | 42.46416 | -70.95693 | 1929 ft | 128 kts | 207° |
| 2026-05-06 11:10 | 42.45580 | -70.96100 | 1767 ft | 128 kts | 207° |
| 2026-05-06 11:11 | 42.44756 | -70.96501 | 1606 ft | 128 kts | 206° |
| 2026-05-06 11:11 | 42.43860 | -70.96939 | 1429 ft | 143 kts | 204° |
| 2026-05-06 11:11 | 42.42905 | -70.97402 | 1221 ft | 147 kts | 204° |
| 2026-05-06 11:11 | 42.41942 | -70.97868 | 1010 ft | 148 kts | 202° |
| 2026-05-06 11:12 | 42.40965 | -70.98341 | 809 ft | 149 kts | 201° |
| 2026-05-06 11:12 | 42.40310 | -70.98657 | 681 ft | 146 kts | 200° |
| 2026-05-06 11:12 | 42.39350 | -70.99121 | 481 ft | 146 kts | 199° |
| 2026-05-06 11:12 | 42.38401 | -70.99582 | 280 ft | 144 kts | 199° |
| 2026-05-06 11:13 | 42.37457 | -71.00046 | 93 ft | 144 kts | 199° |
| 2026-05-06 11:13 | 42.36543 | -71.00492 | 28 ft | 130 kts | 197° |
| 2026-05-06 11:13 | 42.35826 | -71.00828 | 26 ft | 84 kts | 201° |
| 2026-05-06 11:13 | 42.35509 | -71.00985 | 28 ft | 40 kts | 200° |
| 2026-05-06 11:14 | 42.35388 | -71.01064 | 26 ft | 10 kts | 235° |
| 2026-05-06 11:14 | 42.35393 | -71.01152 | 28 ft | 10 kts | 285° |
| 2026-05-06 11:14 | 42.35425 | -71.01269 | 27 ft | 14 kts | 289° |
| 2026-05-06 11:14 | 42.35465 | -71.01358 | 25 ft | 9 kts | 335° |
| 2026-05-06 11:15 | 42.35526 | -71.01348 | 27 ft | 10 kts | 19° |
| 2026-05-06 11:15 | 42.35626 | -71.01318 | 26 ft | 15 kts | 7° |
| 2026-05-06 11:15 | 42.35710 | -71.01283 | 30 ft | 11 kts | 21° |
| 2026-05-06 11:15 | 42.35784 | -71.01248 | 28 ft | 15 kts | 18° |
| 2026-05-06 11:16 | 42.35849 | -71.01298 | 27 ft | 12 kts | 286° |
| 2026-05-06 11:16 | 42.35865 | -71.01436 | 27 ft | 20 kts | 281° |
| 2026-05-06 11:16 | 42.35891 | -71.01618 | 28 ft | 19 kts | 277° |
| 2026-05-06 11:16 | 42.35911 | -71.01761 | 26 ft | 14 kts | 281° |
| 2026-05-06 11:17 | 42.35945 | -71.01882 | 29 ft | 15 kts | 302° |
| 2026-05-06 11:17 | 42.35996 | -71.01996 | 28 ft | 13 kts | 294° |
| 2026-05-06 11:17 | 42.36041 | -71.02098 | 27 ft | 12 kts | 301° |
| 2026-05-06 11:17 | 42.36082 | -71.02190 | 29 ft | 11 kts | 301° |
| 2026-05-06 11:18 | 42.36131 | -71.02268 | 25 ft | 10 kts | 333° |
| 2026-05-06 11:18 | 42.36197 | -71.02273 | 25 ft | 9 kts | 16° |
| 2026-05-06 11:18 | 42.36252 | -71.02235 | 27 ft | 11 kts | 46° |
| 2026-05-06 11:18 | 42.36278 | -71.02157 | 25 ft | 7 kts | 64° |
| 2026-05-06 11:19 | 42.36323 | -71.02124 | 27 ft | 0 kts | 14° |
| 2026-05-06 11:19 | 42.36329 | -71.02122 | 27 ft | 0 kts | 14° |
| 2026-05-06 11:19 | 42.36330 | -71.02122 | 27 ft | 0 kts | 14° |